SWR92 LSZH-SBGR
Flight info
| Callsign | SWR92 |
|---|---|
| Flight time | N/A |
| Altitude | 27000 |
| Route | VEBIT T50 ROTOS Z669 ULMES DCT VADAR DCT NINTU DCT MEBAK DCT REPSI DCT LERGA DCT MINSO DCT NARAK DCT AGN DCT MAQAB DCT TIVLI DCT ELSAP DCT ZAR DCT EXEMU DCT PISUS DCT EDIMU DCT ADUXO DCT NUSGO DCT OBIBO DCT NASOS/N0490F290 DCT ANZAN DCT BLN DCT MGA DCT PIMOS DCT GALTO UN869 ADM UR975 DIDAN/N0493F300 UR975 ANITI UA302 TURUP DCT GANDO/N0496F320 DCT ERETU UN857 UTRAM DCT IREKI UZ21 KORKA/N0485F340 UZ21 VUNOX |
| Aircraft | B77W/H-SDE1E2E3FGHIJ2J3J4J5M1RWXY/LB1D1 |
Departure
| Time | 2026-05-04 20:42 |
|---|---|
| Airport | Zürich Airport (LSZH) |
Arrival
| Time | N/A |
|---|---|
| Airport | São Paulo/Guarulhos–Governor André Franco Montoro International Airport (SBGR) |
| Time | Latitude | Longitude | Altitude | Speed | Heading |
|---|---|---|---|---|---|
| 2026-05-04 19:47 | 47.46191 | 8.55398 | 1408 ft | 0 kts | 186° |
| 2026-05-04 19:48 | 47.46187 | 8.55397 | 1407 ft | 0 kts | 186° |
| 2026-05-04 20:26 | 47.46198 | 8.55399 | 1412 ft | 3 kts | 186° |
| 2026-05-04 20:26 | 47.46220 | 8.55401 | 1408 ft | 3 kts | 177° |
| 2026-05-04 20:26 | 47.46241 | 8.55396 | 1411 ft | 2 kts | 161° |
| 2026-05-04 20:26 | 47.46259 | 8.55382 | 1410 ft | 3 kts | 124° |
| 2026-05-04 20:27 | 47.46267 | 8.55353 | 1410 ft | 3 kts | 97° |
| 2026-05-04 20:27 | 47.46269 | 8.55319 | 1410 ft | 3 kts | 92° |
| 2026-05-04 20:27 | 47.46270 | 8.55301 | 1406 ft | 1 kts | 96° |
| 2026-05-04 20:29 | 47.46267 | 8.55331 | 1406 ft | 7 kts | 96° |
| 2026-05-04 20:29 | 47.46260 | 8.55438 | 1409 ft | 12 kts | 96° |
| 2026-05-04 20:30 | 47.46251 | 8.55559 | 1411 ft | 12 kts | 96° |
| 2026-05-04 20:30 | 47.46242 | 8.55685 | 1405 ft | 12 kts | 96° |
| 2026-05-04 20:30 | 47.46233 | 8.55808 | 1407 ft | 12 kts | 96° |
| 2026-05-04 20:30 | 47.46223 | 8.55931 | 1415 ft | 12 kts | 103° |
| 2026-05-04 20:31 | 47.46163 | 8.56001 | 1414 ft | 12 kts | 178° |
| 2026-05-04 20:31 | 47.46079 | 8.55991 | 1413 ft | 12 kts | 185° |
| 2026-05-04 20:31 | 47.45995 | 8.55976 | 1411 ft | 12 kts | 187° |
| 2026-05-04 20:31 | 47.45916 | 8.55941 | 1416 ft | 12 kts | 200° |
| 2026-05-04 20:32 | 47.45837 | 8.55898 | 1418 ft | 12 kts | 198° |
| 2026-05-04 20:32 | 47.45755 | 8.55872 | 1418 ft | 12 kts | 187° |
| 2026-05-04 20:32 | 47.45676 | 8.55859 | 1418 ft | 10 kts | 192° |
| 2026-05-04 20:32 | 47.45644 | 8.55774 | 1417 ft | 10 kts | 275° |
| 2026-05-04 20:33 | 47.45652 | 8.55667 | 1412 ft | 10 kts | 276° |
| 2026-05-04 20:33 | 47.45660 | 8.55561 | 1408 ft | 11 kts | 276° |
| 2026-05-04 20:33 | 47.45667 | 8.55453 | 1406 ft | 11 kts | 276° |
| 2026-05-04 20:33 | 47.45655 | 8.55352 | 1412 ft | 10 kts | 221° |
| 2026-05-04 20:34 | 47.45586 | 8.55365 | 1409 ft | 11 kts | 155° |
| 2026-05-04 20:34 | 47.45520 | 8.55411 | 1411 ft | 11 kts | 155° |
| 2026-05-04 20:34 | 47.45453 | 8.55456 | 1411 ft | 11 kts | 155° |
| 2026-05-04 20:34 | 47.45387 | 8.55501 | 1414 ft | 11 kts | 155° |
| 2026-05-04 20:35 | 47.45316 | 8.55525 | 1415 ft | 11 kts | 177° |
| 2026-05-04 20:35 | 47.45243 | 8.55519 | 1409 ft | 11 kts | 184° |
| 2026-05-04 20:35 | 47.45170 | 8.55529 | 1410 ft | 11 kts | 165° |
| 2026-05-04 20:35 | 47.45103 | 8.55573 | 1415 ft | 11 kts | 154° |
| 2026-05-04 20:36 | 47.45037 | 8.55620 | 1413 ft | 11 kts | 154° |
| 2026-05-04 20:36 | 47.44971 | 8.55666 | 1410 ft | 11 kts | 155° |
| 2026-05-04 20:36 | 47.44904 | 8.55711 | 1407 ft | 11 kts | 155° |
| 2026-05-04 20:36 | 47.44835 | 8.55757 | 1409 ft | 11 kts | 155° |
| 2026-05-04 20:37 | 47.44766 | 8.55804 | 1404 ft | 11 kts | 155° |
| 2026-05-04 20:37 | 47.44697 | 8.55850 | 1409 ft | 11 kts | 155° |
| 2026-05-04 20:37 | 47.44628 | 8.55836 | 1409 ft | 11 kts | 224° |
| 2026-05-04 20:37 | 47.44593 | 8.55738 | 1408 ft | 11 kts | 244° |
| 2026-05-04 20:38 | 47.44580 | 8.55669 | 1409 ft | 6 kts | 283° |
| 2026-05-04 20:38 | 47.44607 | 8.55633 | 1408 ft | 0 kts | 335° |
| 2026-05-04 20:41 | 47.44612 | 8.55629 | 1406 ft | 6 kts | 335° |
| 2026-05-04 20:41 | 47.44789 | 8.55509 | 1406 ft | 62 kts | 335° |
| 2026-05-04 20:41 | 47.45424 | 8.55072 | 1409 ft | 138 kts | 335° |
| 2026-05-04 20:42 | 47.46514 | 8.54322 | 1408 ft | 205 kts | 335° |
| 2026-05-04 20:42 | 47.47846 | 8.53421 | 2117 ft | 212 kts | 335° |
| 2026-05-04 20:42 | 47.49194 | 8.52467 | 3101 ft | 216 kts | 333° |
| 2026-05-04 20:42 | 47.50532 | 8.51478 | 3835 ft | 215 kts | 332° |
| 2026-05-04 20:43 | 47.51871 | 8.50479 | 4201 ft | 214 kts | 330° |
| 2026-05-04 20:43 | 47.53088 | 8.49222 | 4417 ft | 217 kts | 309° |
| 2026-05-04 20:43 | 47.53718 | 8.47200 | 4593 ft | 221 kts | 278° |
| 2026-05-04 20:43 | 47.53733 | 8.44925 | 4923 ft | 223 kts | 256° |
| 2026-05-04 20:44 | 47.53154 | 8.42802 | 5198 ft | 227 kts | 242° |
| 2026-05-04 20:44 | 47.52399 | 8.40677 | 5394 ft | 240 kts | 242° |
| 2026-05-04 20:44 | 47.51425 | 8.38659 | 5637 ft | 247 kts | 218° |
| 2026-05-04 20:44 | 47.49856 | 8.37641 | 5886 ft | 253 kts | 189° |
| 2026-05-04 20:45 | 47.48064 | 8.37264 | 6062 ft | 268 kts | 188° |
| 2026-05-04 20:45 | 47.46199 | 8.36786 | 6500 ft | 275 kts | 190° |
| 2026-05-04 20:45 | 47.44304 | 8.36233 | 7031 ft | 279 kts | 191° |
| 2026-05-04 20:45 | 47.42402 | 8.35660 | 7625 ft | 281 kts | 191° |
| 2026-05-04 20:46 | 47.40516 | 8.35036 | 8187 ft | 281 kts | 199° |
| 2026-05-04 20:46 | 47.38884 | 8.33462 | 8556 ft | 287 kts | 232° |
| 2026-05-04 20:46 | 47.38020 | 8.30824 | 9134 ft | 286 kts | 251° |
| 2026-05-04 20:46 | 47.37411 | 8.28031 | 9733 ft | 286 kts | 247° |
| 2026-05-04 20:47 | 47.36656 | 8.25315 | 10269 ft | 289 kts | 244° |
| 2026-05-04 20:47 | 47.35766 | 8.22566 | 10433 ft | 306 kts | 241° |
| 2026-05-04 20:47 | 47.34756 | 8.19705 | 10591 ft | 324 kts | 240° |
| 2026-05-04 20:47 | 47.33659 | 8.16701 | 10733 ft | 342 kts | 240° |
| 2026-05-04 20:48 | 47.32499 | 8.13550 | 11059 ft | 354 kts | 240° |
| 2026-05-04 20:48 | 47.31383 | 8.10271 | 11572 ft | 361 kts | 243° |
| 2026-05-04 20:48 | 47.30306 | 8.06894 | 12137 ft | 366 kts | 244° |
| 2026-05-04 20:48 | 47.29211 | 8.03488 | 12757 ft | 370 kts | 244° |
| 2026-05-04 20:49 | 47.28093 | 8.00056 | 13390 ft | 373 kts | 244° |
| 2026-05-04 20:49 | 47.26957 | 7.96594 | 14010 ft | 377 kts | 244° |
| 2026-05-04 20:49 | 47.25810 | 7.93112 | 14554 ft | 380 kts | 244° |
| 2026-05-04 20:49 | 47.24653 | 7.89602 | 15131 ft | 383 kts | 244° |
| 2026-05-04 20:50 | 47.23485 | 7.86062 | 15696 ft | 386 kts | 244° |
| 2026-05-04 20:50 | 47.22307 | 7.82492 | 16257 ft | 389 kts | 244° |
| 2026-05-04 20:50 | 47.21120 | 7.78903 | 16816 ft | 392 kts | 244° |
| 2026-05-04 20:50 | 47.19938 | 7.75342 | 17343 ft | 396 kts | 243° |
| 2026-05-04 20:51 | 47.19043 | 7.72932 | 17713 ft | 398 kts | 239° |
| 2026-05-04 20:51 | 47.17515 | 7.69605 | 18245 ft | 401 kts | 232° |
| 2026-05-04 20:51 | 47.15754 | 7.66398 | 18725 ft | 404 kts | 231° |
| 2026-05-04 20:51 | 47.13965 | 7.63140 | 19247 ft | 405 kts | 231° |
| 2026-05-04 20:52 | 47.12225 | 7.59950 | 19776 ft | 406 kts | 231° |
| 2026-05-04 20:52 | 47.10629 | 7.57013 | 20315 ft | 405 kts | 231° |
| 2026-05-04 20:52 | 47.08871 | 7.53771 | 20809 ft | 408 kts | 231° |
| 2026-05-04 20:52 | 47.07099 | 7.50500 | 21251 ft | 411 kts | 231° |
| 2026-05-04 20:53 | 47.05312 | 7.47207 | 21723 ft | 414 kts | 231° |
| 2026-05-04 20:53 | 47.03680 | 7.44204 | 22146 ft | 416 kts | 230° |
| 2026-05-04 20:53 | 47.01870 | 7.40883 | 22616 ft | 418 kts | 230° |
| 2026-05-04 20:53 | 47.00046 | 7.37562 | 23111 ft | 419 kts | 230° |
| 2026-05-04 20:54 | 46.98217 | 7.34237 | 23620 ft | 420 kts | 230° |
| 2026-05-04 20:54 | 46.96382 | 7.30905 | 24012 ft | 421 kts | 230° |
| 2026-05-04 20:54 | 46.94538 | 7.27557 | 24351 ft | 424 kts | 230° |
| 2026-05-04 20:54 | 46.92687 | 7.24187 | 24749 ft | 425 kts | 230° |
| 2026-05-04 20:55 | 46.90836 | 7.20814 | 25136 ft | 426 kts | 230° |
| 2026-05-04 20:55 | 46.88977 | 7.17430 | 25482 ft | 428 kts | 230° |
| 2026-05-04 20:55 | 46.87109 | 7.14034 | 25817 ft | 430 kts | 230° |
| 2026-05-04 20:55 | 46.85228 | 7.10616 | 26125 ft | 432 kts | 230° |
| 2026-05-04 20:56 | 46.83336 | 7.07186 | 26456 ft | 434 kts | 230° |
| 2026-05-04 20:56 | 46.81314 | 7.03524 | 26798 ft | 436 kts | 230° |
| 2026-05-04 20:56 | 46.79450 | 7.00152 | 27107 ft | 438 kts | 230° |